Time;durP1;ratioP1;P1;durP2;ratioP2;P2;SDS_P1;SDS_P2;PMS_P1;PMS_P2;Temp;Humidity;BMP_temperature;BMP_pressure;BME280_temperature;BME280_humidity;BME280_pressure;Samples;Min_cycle;Max_cycle;Signal;HPM_P1;HPM_P2
2021/04/15 00:00:16;;;;;;;7.65;4.65;;;;;;;3.22;79.60;100336.91;5055889;28;20415;-44
2021/04/15 00:03:07;;;;;;;6.85;4.78;;;;;;;3.25;79.75;100336.94;5055134;28;20415;-44
2021/04/15 00:05:33;;;;;;;9.48;5.75;;;;;;;3.25;80.00;100335.22;5055890;28;20083;-44
2021/04/15 00:07:58;;;;;;;7.80;4.75;;;;;;;3.27;79.86;100330.94;5056150;28;20411;-44
2021/04/15 00:10:33;;;;;;;7.05;5.10;;;;;;;3.25;79.91;100327.47;5055431;28;20079;-44
2021/04/15 00:12:59;;;;;;;10.60;5.45;;;;;;;3.06;80.43;100328.06;5055718;28;20048;-44
2021/04/15 00:15:25;;;;;;;9.73;5.70;;;;;;;3.19;80.79;100324.78;5055669;28;20045;-44
2021/04/15 00:17:50;;;;;;;11.85;6.28;;;;;;;3.17;80.73;100320.44;5055473;28;20045;-44
2021/04/15 00:20:16;;;;;;;9.60;6.05;;;;;;;3.17;80.90;100326.47;5055321;28;20068;-44
2021/04/15 00:22:42;;;;;;;11.02;5.93;;;;;;;3.25;80.79;100314.53;5055334;28;20088;-44
2021/04/15 00:25:08;;;;;;;9.77;6.18;;;;;;;3.24;80.97;100311.91;5055559;28;20053;-44
2021/04/15 00:27:34;;;;;;;10.60;6.00;;;;;;;3.31;80.71;100312.84;5055572;28;20045;-44
2021/04/15 00:30:00;;;;;;;10.30;6.57;;;;;;;3.27;80.82;100307.63;5055512;28;20055;-44
2021/04/15 00:32:25;;;;;;;9.10;5.80;;;;;;;3.33;80.55;100311.16;5055698;28;20041;-44
2021/04/15 00:34:51;;;;;;;8.00;5.07;;;;;;;3.24;81.03;100307.59;5055969;28;20049;-44
2021/04/15 00:37:17;;;;;;;10.05;5.28;;;;;;;3.18;80.92;100304.91;5055490;28;20056;-44
2021/04/15 00:39:43;;;;;;;10.88;6.40;;;;;;;3.21;80.82;100306.69;5054240;28;20037;-44
2021/04/15 00:42:09;;;;;;;11.55;6.22;;;;;;;3.24;80.87;100296.38;5055211;28;20128;-44
2021/04/15 00:44:34;;;;;;;11.30;5.78;;;;;;;3.25;80.72;100304.16;5055351;28;20049;-44
2021/04/15 00:47:05;;;;;;;9.00;5.65;;;;;;;3.24;80.74;100301.53;5055244;28;20053;-44
2021/04/15 00:49:44;;;;;;;12.52;7.13;;;;;;;3.18;80.83;100304.03;5053867;28;20109;-44
2021/04/15 00:52:11;;;;;;;8.32;5.40;;;;;;;3.09;81.34;100293.56;5054325;28;20041;-44
2021/04/15 00:54:49;;;;;;;8.70;5.38;;;;;;;3.14;81.02;100302.28;5054028;28;20479;-44
2021/04/15 00:57:25;;;;;;;9.40;4.88;;;;;;;3.18;80.95;100299.72;5054271;28;20049;-44
2021/04/15 00:59:50;;;;;;;11.43;5.28;;;;;;;3.12;81.17;100299.69;5054544;28;20155;-44
2021/04/15 01:02:18;;;;;;;8.23;5.18;;;;;;;3.17;81.17;100295.41;5054587;28;20096;-44
2021/04/15 01:04:44;;;;;;;7.25;5.57;;;;;;;3.30;80.63;100303.34;5053780;28;20335;-44
2021/04/15 01:07:10;;;;;;;8.30;5.32;;;;;;;3.17;80.44;100300.59;5054314;28;20044;-44
2021/04/15 01:09:35;;;;;;;9.75;4.97;;;;;;;3.23;79.90;100295.50;5054857;28;20139;-44
2021/04/15 01:12:32;;;;;;;8.45;5.13;;;;;;;3.06;79.94;100290.97;5054885;28;20392;-44
2021/04/15 01:15:16;;;;;;;9.13;6.13;;;;;;;3.00;80.47;100291.75;5053960;28;20068;-44
2021/04/15 01:17:57;;;;;;;10.70;5.20;;;;;;;2.96;80.63;100283.09;5054796;28;20108;-44
2021/04/15 01:20:44;;;;;;;9.13;5.50;;;;;;;3.06;80.12;100284.06;5037289;28;20435;-44
2021/04/15 01:23:31;;;;;;;12.75;5.75;;;;;;;2.92;80.38;100291.63;5054450;28;20351;-44
2021/04/15 01:26:15;;;;;;;6.10;4.28;;;;;;;3.03;80.06;100287.47;5053785;28;20053;-44
2021/04/15 01:29:13;;;;;;;8.55;4.22;;;;;;;2.95;79.98;100286.50;5054412;28;20450;-44
2021/04/15 01:31:56;;;;;;;5.50;4.43;;;;;;;2.92;80.16;100283.00;5053661;28;20048;-44
2021/04/15 01:34:48;;;;;;;7.15;4.13;;;;;;;2.96;79.87;100290.84;5054549;28;20053;-44
2021/04/15 01:37:16;;;;;;;6.82;4.50;;;;;;;2.80;80.83;100284.59;5054473;28;20410;-44
2021/04/15 01:39:53;;;;;;;5.53;4.10;;;;;;;2.92;80.88;100290.75;5053521;28;20053;-43
2021/04/15 01:42:24;;;;;;;10.27;4.82;;;;;;;2.90;80.93;100276.97;5053241;28;20045;-43
2021/04/15 01:44:55;;;;;;;9.30;4.63;;;;;;;2.91;80.92;100270.91;5037025;28;20049;-44
2021/04/15 01:47:24;;;;;;;6.95;4.65;;;;;;;2.86;81.27;100280.31;5053179;28;20048;-44
2021/04/15 01:49:53;;;;;;;9.85;4.88;;;;;;;2.86;81.22;100276.06;5053007;28;20064;-44
2021/04/15 01:52:18;;;;;;;8.98;4.68;;;;;;;2.85;81.35;100283.78;5053367;28;20053;-44
2021/04/15 01:54:50;;;;;;;8.40;4.95;;;;;;;2.83;81.50;100275.09;5054540;28;20461;-44
2021/04/15 01:57:25;;;;;;;8.25;4.65;;;;;;;2.96;80.98;100264.97;5053612;28;20052;-44
2021/04/15 02:00:17;;;;;;;7.45;4.57;;;;;;;2.86;80.72;100269.97;5053305;28;20048;-44
2021/04/15 02:02:45;;;;;;;6.45;4.47;;;;;;;2.88;81.07;100265.72;5055537;28;20362;-44
2021/04/15 02:05:26;;;;;;;7.10;4.47;;;;;;;2.93;80.80;100270.09;5053998;28;20106;-44
2021/04/15 02:07:56;;;;;;;6.57;4.45;;;;;;;2.92;81.02;100273.50;5052922;28;20041;-44
2021/04/15 02:10:22;;;;;;;6.97;4.90;;;;;;;2.84;80.90;100275.16;5036654;28;20056;-44
2021/04/15 02:12:49;;;;;;;7.00;4.57;;;;;;;2.77;81.57;100271.59;5053059;28;20045;-44
2021/04/15 02:15:20;;;;;;;7.93;5.10;;;;;;;2.94;80.55;100269.25;5053010;28;20053;-44
2021/04/15 02:17:45;;;;;;;7.78;4.97;;;;;;;2.77;80.56;100273.34;5051926;28;20174;-44
2021/04/15 02:20:14;;;;;;;7.47;4.25;;;;;;;2.77;81.04;100271.59;5052929;28;20146;-44
2021/04/15 02:22:44;;;;;;;5.88;3.90;;;;;;;2.80;80.66;100271.66;5052814;28;20045;-44
2021/04/15 02:25:30;;;;;;;5.70;3.88;;;;;;;2.77;80.69;100271.59;5052929;28;20106;-44
2021/04/15 02:28:10;;;;;;;5.15;3.45;;;;;;;2.74;80.30;100265.53;5052864;28;20063;-44
2021/04/15 02:30:49;;;;;;;5.28;4.07;;;;;;;2.76;80.69;100263.81;5052868;28;20049;-44
2021/04/15 02:33:19;;;;;;;5.60;3.53;;;;;;;2.88;79.95;100263.97;5053400;28;20052;-44
2021/04/15 02:35:46;;;;;;;4.50;3.67;;;;;;;2.78;79.98;100259.53;5036418;28;20045;-44
2021/04/15 02:38:12;;;;;;;5.25;2.95;;;;;;;2.72;80.27;100262.03;5052709;28;20075;-44
2021/04/15 02:40:42;;;;;;;5.75;3.20;;;;;;;2.74;80.58;100263.81;5052507;28;20399;-44
2021/04/15 02:43:22;;;;;;;5.65;3.28;;;;;;;2.67;80.50;100259.41;5052491;28;20056;-44
2021/04/15 02:45:49;;;;;;;4.45;2.92;;;;;;;2.75;80.68;100254.31;5036098;28;20059;-44
2021/04/15 02:48:21;;;;;;;6.10;3.15;;;;;;;2.69;80.64;100257.69;5035626;28;20445;-44
2021/04/15 02:50:47;;;;;;;4.40;3.03;;;;;;;2.69;80.92;100252.50;5052219;28;20366;-44
2021/04/15 02:53:17;;;;;;;7.30;3.35;;;;;;;2.61;80.92;100248.97;5053004;28;20059;-44
2021/04/15 02:56:20;;;;;;;4.65;3.25;;;;;;;2.58;81.34;100246.34;5052428;28;20053;-44
2021/04/15 02:58:49;;;;;;;4.40;3.10;;;;;;;2.61;81.43;100256.72;5052423;28;20048;-44
2021/04/15 03:01:21;;;;;;;5.35;3.53;;;;;;;2.66;81.04;100251.59;5052298;28;20052;-44
2021/04/15 03:03:49;;;;;;;4.88;3.50;;;;;;;2.66;80.96;100234.34;5052060;28;20120;-44
2021/04/15 03:06:16;;;;;;;9.82;3.78;;;;;;;2.65;80.49;100248.16;5035811;28;20078;-44
2021/04/15 03:08:43;;;;;;;7.63;4.03;;;;;;;2.43;81.40;100243.50;5053125;28;20116;-44
2021/04/15 03:11:13;;;;;;;5.53;3.20;;;;;;;2.46;81.48;100243.56;5052261;28;20041;-44
2021/04/15 03:13:53;;;;;;;4.30;3.17;;;;;;;2.51;81.33;100247.97;5051960;28;20056;-44
2021/04/15 03:16:19;;;;;;;6.55;2.85;;;;;;;2.54;80.93;100244.56;5051912;28;20451;-44
2021/04/15 03:18:48;;;;;;;3.47;2.38;;;;;;;2.47;80.88;100234.94;5052242;28;20056;-44
2021/04/15 03:21:25;;;;;;;3.92;2.25;;;;;;;2.54;80.98;100241.97;5035591;28;20319;-44
2021/04/15 03:23:55;;;;;;;4.22;2.50;;;;;;;2.52;80.86;100241.06;5051833;28;20443;-44
2021/04/15 03:26:32;;;;;;;6.60;3.38;;;;;;;2.42;81.23;100239.19;5051756;28;20053;-44
2021/04/15 03:29:22;;;;;;;3.88;2.33;;;;;;;2.47;81.40;100242.69;5052813;28;20144;-44
2021/04/15 03:32:09;;;;;;;6.55;3.03;;;;;;;2.40;81.59;100244.34;5055295;28;20044;-44
2021/04/15 03:34:39;;;;;;;2.95;2.50;;;;;;;2.32;81.93;100243.38;5055630;28;20358;-44
2021/04/15 03:37:05;;;;;;;5.20;2.97;;;;;;;2.39;81.76;100237.44;5055473;28;20045;-44
2021/04/15 03:39:32;;;;;;;4.65;3.03;;;;;;;2.40;81.57;100243.47;5038813;28;20049;-44
2021/04/15 03:42:24;;;;;;;7.88;4.10;;;;;;;2.44;81.22;100240.06;5054995;28;20442;-44
2021/04/15 03:44:51;;;;;;;3.95;2.70;;;;;;;2.46;80.87;100235.81;5058250;28;20351;-44
2021/04/15 03:47:23;;;;;;;6.28;4.10;;;;;;;2.40;81.08;100238.28;5038919;28;20048;-44
2021/04/15 03:49:59;;;;;;;8.05;3.92;;;;;;;2.26;81.53;100231.19;5054908;28;20052;-44
2021/04/15 03:52:29;;;;;;;4.65;3.58;;;;;;;2.26;81.67;100238.09;5055270;28;20056;-43
2021/04/15 03:55:27;;;;;;;4.07;3.00;;;;;;;2.23;81.56;100228.56;5054860;28;20450;-43
2021/04/15 03:57:57;;;;;;;4.35;2.88;;;;;;;2.20;81.92;100236.28;5055971;28;20053;-44
2021/04/15 04:00:31;;;;;;;5.38;2.30;;;;;;;2.22;81.91;100242.34;5055084;28;20072;-43
2021/04/15 04:03:02;;;;;;;2.92;2.20;;;;;;;2.25;81.87;100229.47;5054816;28;20045;-43
2021/04/15 04:05:38;;;;;;;3.75;2.28;;;;;;;2.22;81.68;100229.44;5055011;28;20053;-44
2021/04/15 04:08:06;;;;;;;3.47;1.92;;;;;;;2.25;82.02;100228.63;5039491;28;20094;-44
2021/04/15 04:10:42;;;;;;;3.13;2.15;;;;;;;2.22;81.76;100228.56;5038515;28;20056;-44
2021/04/15 04:13:24;;;;;;;2.83;1.77;;;;;;;2.19;81.48;100225.94;5055007;28;20064;-44
2021/04/15 04:16:19;;;;;;;3.27;2.03;;;;;;;2.16;81.48;100224.16;5055004;28;20053;-43
2021/04/15 04:18:47;;;;;;;2.75;1.98;;;;;;;2.13;82.21;100224.09;5056165;28;20053;-44
2021/04/15 04:21:17;;;;;;;3.33;2.10;;;;;;;2.15;81.99;100222.44;5054668;28;20053;-44
2021/04/15 04:23:47;;;;;;;2.75;2.00;;;;;;;2.02;82.65;100225.66;5055116;28;20423;-44
2021/04/15 04:26:12;;;;;;;4.60;2.40;;;;;;;2.09;82.79;100225.78;5054728;28;20116;-43
2021/04/15 04:28:41;;;;;;;2.65;2.05;;;;;;;2.20;82.02;100217.31;5055539;28;20077;-44
2021/04/15 04:31:10;;;;;;;2.20;1.98;;;;;;;2.16;82.20;100213.81;5054646;28;20053;-44
2021/04/15 04:33:38;;;;;;;2.78;1.83;;;;;;;2.10;82.83;100218.88;5038174;28;20457;-43
2021/04/15 04:36:05;;;;;;;3.03;2.00;;;;;;;2.13;82.76;100220.66;5037906;28;20453;-43
2021/04/15 04:38:30;;;;;;;2.15;1.73;;;;;;;2.27;81.98;100220.00;5054532;28;20105;-44
2021/04/15 04:40:58;;;;;;;3.25;2.45;;;;;;;2.07;82.22;100224.00;5053418;28;20048;-44
2021/04/15 04:43:34;;;;;;;2.20;1.60;;;;;;;2.11;82.38;100218.03;5054209;28;20060;-43
2021/04/15 04:46:03;;;;;;;3.65;2.80;;;;;;;2.06;82.67;100230.03;5054462;28;20037;-44
2021/04/15 04:48:34;;;;;;;3.92;2.15;;;;;;;2.07;82.57;100219.72;5053850;28;20366;-44
2021/04/15 04:51:10;;;;;;;3.45;2.35;;;;;;;2.12;82.41;100224.97;5054343;28;20499;-44
2021/04/15 04:53:37;;;;;;;4.90;2.28;;;;;;;2.10;82.56;100213.72;5054624;28;20048;-43
2021/04/15 04:56:25;;;;;;;2.47;2.00;;;;;;;2.10;82.04;100218.88;5055092;28;20049;-43
2021/04/15 04:59:09;;;;;;;2.78;2.08;;;;;;;2.12;82.18;100213.75;5054252;28;20057;-43
2021/04/15 05:01:34;;;;;;;2.90;2.05;;;;;;;2.04;82.87;100217.06;5053983;28;20041;-44
2021/04/15 05:04:03;;;;;;;3.28;2.10;;;;;;;2.13;82.34;100215.50;5054173;28;20060;-43
2021/04/15 05:06:30;;;;;;;4.20;2.42;;;;;;;2.12;82.79;100203.44;5037574;28;20327;-44
2021/04/15 05:09:06;;;;;;;2.83;2.35;;;;;;;2.21;82.19;100208.72;5037560;28;20114;-44
2021/04/15 05:11:35;;;;;;;4.00;2.53;;;;;;;2.15;82.77;100208.66;5054917;28;20045;-43
2021/04/15 05:14:01;;;;;;;3.42;2.28;;;;;;;2.16;82.92;100200.91;5021300;28;20059;-44
2021/04/15 05:16:28;;;;;;;4.03;2.50;;;;;;;2.22;82.57;100206.16;5037901;28;20127;-43
2021/04/15 05:18:54;;;;;;;3.20;2.65;;;;;;;2.24;82.49;100209.66;5053578;28;20434;-44
2021/04/15 05:21:23;;;;;;;3.20;2.00;;;;;;;2.23;82.03;100207.91;5053485;28;20045;-44
2021/04/15 05:23:56;;;;;;;2.58;2.17;;;;;;;2.21;82.45;100207.03;5037479;28;20072;-43
2021/04/15 05:26:25;;;;;;;;;;;;;;;1.98;82.61;100205.78;5054443;28;20144;-44
2021/04/15 05:28:52;;;;;;;5.95;3.15;;;;;;;1.99;83.13;100210.13;5053775;28;19921;-43
2021/04/15 05:31:19;;;;;;;5.80;3.47;;;;;;;2.00;82.86;100211.84;5053459;28;20048;-43
2021/04/15 05:33:44;;;;;;;11.43;5.97;;;;;;;1.94;83.14;100202.28;5036974;28;20354;-44
2021/04/15 05:36:12;;;;;;;6.90;3.97;;;;;;;2.03;83.05;100215.34;5054445;28;20060;-43
2021/04/15 05:39:07;;;;;;;5.78;3.35;;;;;;;2.03;82.81;100211.91;5053587;28;20056;-43
2021/04/15 05:41:49;;;;;;;22.48;8.48;;;;;;;2.13;83.34;100206.03;5055071;28;20442;-44
2021/04/15 05:44:27;;;;;;;34.70;14.43;;;;;;;2.18;82.85;100206.97;5054337;28;20048;-44
2021/04/15 05:46:53;;;;;;;19.40;10.93;;;;;;;2.05;83.48;100205.03;5053461;28;20140;-44
2021/04/15 05:49:21;;;;;;;5.63;4.00;;;;;;;2.20;83.28;100200.09;5053315;28;20449;-44
2021/04/15 05:51:53;;;;;;;2.70;2.03;;;;;;;2.18;83.07;100201.81;5052936;28;20353;-44
2021/04/15 05:54:19;;;;;;;4.15;2.65;;;;;;;2.17;83.22;100196.59;5053408;28;20052;-43
2021/04/15 05:57:04;;;;;;;3.08;2.10;;;;;;;2.24;82.57;100196.72;5053266;28;20048;-44
2021/04/15 05:59:38;;;;;;;4.05;2.03;;;;;;;2.35;82.13;100196.88;5053801;28;20041;-43
2021/04/15 06:02:40;;;;;;;3.25;2.42;;;;;;;2.31;82.42;100190.78;5053753;28;20437;-43
2021/04/15 06:05:27;;;;;;;3.08;2.70;;;;;;;2.31;82.21;100193.38;5054042;28;20060;-44
2021/04/15 06:07:55;;;;;;;2.53;2.25;;;;;;;2.23;82.72;100192.38;5053064;28;20053;-43
2021/04/15 06:10:22;;;;;;;4.40;3.05;;;;;;;2.37;82.08;100190.00;5053059;28;20060;-44
2021/04/15 06:13:04;;;;;;;9.82;7.82;;;;;;;2.36;82.36;100195.16;5053002;28;20069;-44
2021/04/15 06:15:33;;;;;;;4.00;2.58;;;;;;;2.34;82.69;100182.22;5053055;28;20045;-43
2021/04/15 06:18:21;;;;;;;28.70;17.42;;;;;;;2.44;82.13;100184.09;5052975;28;20049;-44
2021/04/15 06:20:53;;;;;;;5.05;3.00;;;;;;;2.61;81.79;100181.72;5037004;28;20056;-44
2021/04/15 06:23:21;;;;;;;6.25;4.97;;;;;;;2.60;81.46;100179.09;5036252;28;20102;-43
2021/04/15 06:25:48;;;;;;;4.18;3.70;;;;;;;2.53;82.00;100176.44;5052513;28;20062;-43
2021/04/15 06:28:23;;;;;;;4.07;3.55;;;;;;;2.68;81.81;100172.31;5052374;28;20077;-43
2021/04/15 06:31:02;;;;;;;5.65;4.15;;;;;;;2.71;81.76;100172.34;5036316;28;20048;-43
2021/04/15 06:33:27;;;;;;;4.85;4.20;;;;;;;2.72;81.56;100168.91;5052772;28;20072;-44
2021/04/15 06:35:54;;;;;;;6.28;3.50;;;;;;;2.55;81.93;100166.13;5036036;28;20063;-43
2021/04/15 06:38:46;;;;;;;3.90;2.90;;;;;;;2.69;82.06;100168.88;5035917;28;20465;-51
2021/04/15 06:41:33;;;;;;;5.97;3.75;;;;;;;2.85;81.22;100164.75;5052228;28;20049;-51
2021/04/15 06:44:06;;;;;;;7.18;4.20;;;;;;;2.77;81.37;100164.69;5053443;28;20049;-51
2021/04/15 06:47:06;;;;;;;34.05;17.73;;;;;;;2.78;81.39;100169.84;5052344;28;20354;-51
2021/04/15 06:49:51;;;;;;;20.88;9.07;;;;;;;2.90;80.88;100161.38;5060390;28;20063;-51
2021/04/15 06:52:19;;;;;;;17.42;8.32;;;;;;;2.83;81.20;100156.09;5052203;28;20458;-51
2021/04/15 06:55:00;;;;;;;10.57;5.50;;;;;;;2.89;81.42;100153.59;5035601;28;20446;-44
2021/04/15 06:57:50;;;;;;;5.35;3.70;;;;;;;2.88;81.81;100152.72;5036586;28;20067;-44
2021/04/15 07:00:25;;;;;;;5.90;4.20;;;;;;;3.00;81.37;100158.03;5052562;28;20045;-43
2021/04/15 07:03:07;;;;;;;6.50;4.35;;;;;;;3.02;81.25;100156.34;5020011;28;20373;-44
2021/04/15 07:05:41;;;;;;;6.68;4.32;;;;;;;3.09;80.38;100152.09;5052809;28;20057;-43
2021/04/15 07:08:08;;;;;;;6.03;4.32;;;;;;;3.09;80.92;100156.38;5053215;28;20049;-44
2021/04/15 07:11:22;;;;;;;6.95;5.15;;;;;;;3.05;80.82;100152.91;5051832;28;20087;-44
2021/04/15 07:14:10;;;;;;;5.93;3.50;;;;;;;2.99;81.49;100150.25;5089396;28;20070;-44
2021/04/15 07:16:44;;;;;;;5.95;4.00;;;;;;;3.14;80.41;100149.56;5053138;28;20049;-44
2021/04/15 07:19:37;;;;;;;6.22;4.55;;;;;;;2.96;80.85;100142.47;5052689;28;20048;-44
2021/04/15 07:22:42;;;;;;;5.15;3.90;;;;;;;3.20;80.50;100150.47;5052324;28;20097;-44
2021/04/15 07:25:13;;;;;;;4.65;3.28;;;;;;;3.16;80.81;100143.53;5068283;28;20067;-44
2021/04/15 07:27:51;;;;;;;6.53;4.25;;;;;;;3.09;81.18;100151.22;5052026;28;20064;-44
2021/04/15 07:30:38;;;;;;;8.68;5.13;;;;;;;3.22;81.14;100145.34;5051964;28;20060;-44
2021/04/15 07:33:25;;;;;;;5.50;3.17;;;;;;;3.22;81.11;100141.03;5037646;28;20041;-44
2021/04/15 07:36:14;;;;;;;8.15;3.70;;;;;;;3.30;81.17;100148.84;5037133;28;20446;-44
2021/04/15 07:39:05;;;;;;;5.25;3.92;;;;;;;3.35;81.54;100141.13;5051853;28;20144;-44
2021/04/15 07:42:08;;;;;;;6.43;4.15;;;;;;;3.49;80.08;100152.50;5051818;28;20354;-44
2021/04/15 07:44:36;;;;;;;5.72;3.60;;;;;;;3.52;80.11;100134.38;5052795;27;20106;-44
2021/04/15 07:47:31;;;;;;;5.10;3.50;;;;;;;3.55;79.75;100142.19;5051539;28;20093;-44
2021/04/15 07:50:21;;;;;;;6.57;3.97;;;;;;;3.54;80.08;100145.63;5051393;28;20053;-44
2021/04/15 07:53:17;;;;;;;7.22;3.90;;;;;;;3.55;79.60;100139.59;5052301;27;20041;-44
2021/04/15 07:56:11;;;;;;;12.57;7.35;;;;;;;3.64;80.11;100149.16;5052540;28;20062;-44
2021/04/15 07:58:42;;;;;;;9.90;7.68;;;;;;;3.85;79.54;100148.47;5051438;28;20041;-44
2021/04/15 08:01:32;;;;;;;6.50;4.53;;;;;;;3.87;78.78;100144.19;5051896;28;20056;-52
2021/04/15 08:04:04;;;;;;;4.47;3.53;;;;;;;3.77;79.31;100144.94;5051633;28;20045;-52
2021/04/15 08:06:56;;;;;;;4.57;3.55;;;;;;;3.78;79.90;100144.97;5052416;28;20052;-52
2021/04/15 08:10:07;;;;;;;4.82;3.55;;;;;;;3.82;79.27;100143.25;5051833;28;20426;-52
2021/04/15 08:13:08;;;;;;;6.32;4.45;;;;;;;3.90;79.80;100137.28;5077253;28;20083;-52
2021/04/15 08:16:08;;;;;;;5.38;4.03;;;;;;;4.06;78.52;100140.81;5063372;28;20101;-44
2021/04/15 08:18:41;;;;;;;5.63;4.68;;;;;;;4.08;78.45;100136.53;5056226;28;20060;-44
2021/04/15 08:21:14;;;;;;;5.32;3.65;;;;;;;4.01;78.35;100145.13;5055932;28;20041;-44
2021/04/15 08:23:43;;;;;;;6.72;4.70;;;;;;;4.06;79.29;100138.25;5054466;28;20051;-44
2021/04/15 08:26:33;;;;;;;6.78;3.70;;;;;;;4.17;77.80;100146.09;5055395;28;20053;-44
2021/04/15 08:29:36;;;;;;;6.65;3.70;;;;;;;4.15;78.07;100134.84;5054299;28;20457;-44
2021/04/15 08:32:38;;;;;;;12.73;7.35;;;;;;;4.11;78.12;100131.38;5055293;28;20056;-44
2021/04/15 08:35:20;;;;;;;6.55;3.85;;;;;;;4.33;77.36;100122.00;5054529;28;20045;-44
2021/04/15 08:37:53;;;;;;;6.68;4.35;;;;;;;4.18;77.82;100127.09;5038155;28;20105;-44
2021/04/15 08:40:31;;;;;;;8.10;4.75;;;;;;;4.18;78.38;100130.53;5037796;28;20443;-44
2021/04/15 08:43:51;;;;;;;5.68;3.33;;;;;;;4.17;77.45;100135.75;5054299;28;20048;-44
2021/04/15 08:46:39;;;;;;;7.47;3.80;;;;;;;4.16;78.42;100124.50;5076793;28;20467;-44
2021/04/15 08:49:13;;;;;;;5.20;3.33;;;;;;;4.23;78.51;100128.00;5054240;28;20120;-44
2021/04/15 08:52:01;;;;;;;5.75;3.20;;;;;;;4.25;77.79;100130.59;5037868;28;20077;-44
2021/04/15 08:54:30;;;;;;;4.22;2.75;;;;;;;4.18;77.51;100127.09;5055178;28;20128;-44
2021/04/15 08:57:23;;;;;;;7.25;3.58;;;;;;;4.06;77.64;100140.81;5037370;28;20105;-44
2021/04/15 08:59:58;;;;;;;5.63;3.30;;;;;;;4.01;78.15;100127.00;5060065;28;20113;-44
2021/04/15 09:02:50;;;;;;;11.38;5.03;;;;;;;4.09;78.52;100127.03;5055023;28;20491;-44
2021/04/15 09:05:19;;;;;;;4.03;2.50;;;;;;;4.03;77.62;100127.88;5054151;28;20048;-44
2021/04/15 09:07:55;;;;;;;7.97;3.10;;;;;;;3.94;78.23;100127.81;5054949;28;20438;-44
2021/04/15 09:10:23;;;;;;;6.43;2.88;;;;;;;3.95;78.48;100125.22;5054115;28;20098;-44
2021/04/15 09:13:16;;;;;;;6.22;3.50;;;;;;;3.94;78.80;100133.00;5053768;28;20129;-44
2021/04/15 09:15:58;;;;;;;4.93;3.38;;;;;;;3.86;77.95;100132.06;5054796;28;20044;-44
2021/04/15 09:18:26;;;;;;;31.40;13.52;;;;;;;3.84;78.86;100124.28;5053657;28;20045;-44
2021/04/15 09:21:10;;;;;;;34.75;18.15;;;;;;;3.83;79.12;100119.94;5053641;28;20098;-44
2021/04/15 09:23:35;;;;;;;30.80;22.77;;;;;;;3.83;78.98;100124.25;5054682;28;20059;-44
2021/04/15 09:26:36;;;;;;;22.02;14.65;;;;;;;3.87;78.39;100126.91;5054401;28;20053;-44
2021/04/15 09:29:20;;;;;;;14.23;7.13;;;;;;;3.98;78.71;100122.66;5054449;27;20053;-44
2021/04/15 09:31:56;;;;;;;13.60;8.25;;;;;;;3.91;78.24;100118.28;5037849;28;20110;-44
2021/04/15 09:35:02;;;;;;;6.93;4.25;;;;;;;3.88;78.47;100120.00;5053619;28;20045;-44
2021/04/15 09:37:45;;;;;;;10.98;7.03;;;;;;;3.82;78.55;100118.22;5051781;28;20051;-44
2021/04/15 09:40:30;;;;;;;5.82;3.83;;;;;;;3.79;79.20;100123.38;5052167;28;20143;-44
2021/04/15 09:43:33;;;;;;;4.38;2.65;;;;;;;3.96;78.74;100124.38;5051764;28;20076;-44
2021/04/15 09:46:23;;;;;;;4.30;2.95;;;;;;;3.93;78.95;100121.78;5052475;28;20113;-44
2021/04/15 09:48:51;;;;;;;4.53;3.08;;;;;;;4.05;79.41;100117.50;5051346;28;20129;-44
2021/04/15 09:51:41;;;;;;;7.43;3.65;;;;;;;3.94;79.35;100117.44;5052239;28;20109;-44
2021/04/15 09:54:28;;;;;;;5.32;2.30;;;;;;;4.10;79.11;100116.69;5054070;28;20109;-44
2021/04/15 09:57:06;;;;;;;7.07;3.13;;;;;;;4.16;78.92;100115.81;5053360;28;20049;-44
2021/04/15 09:59:51;;;;;;;9.00;3.97;;;;;;;4.16;79.21;100113.25;5053294;28;20045;-44
2021/04/15 10:02:44;;;;;;;6.25;3.65;;;;;;;4.32;78.89;100114.19;5054309;28;20109;-44
2021/04/15 10:05:13;;;;;;;5.75;3.22;;;;;;;4.26;78.06;100104.69;5053358;28;20170;-44
2021/04/15 10:07:43;;;;;;;4.20;2.38;;;;;;;4.30;78.03;100106.41;5052248;28;20065;-44
2021/04/15 10:10:32;;;;;;;8.52;4.43;;;;;;;4.38;78.74;100103.84;5051855;28;20068;-44
2021/04/15 10:13:01;;;;;;;6.38;3.97;;;;;;;4.42;77.77;100103.91;5051642;28;20498;-44
2021/04/15 10:15:47;;;;;;;4.38;2.95;;;;;;;4.45;78.28;100096.13;5052634;28;20049;-44
2021/04/15 10:18:50;;;;;;;5.00;2.97;;;;;;;4.34;77.89;100104.72;5052887;28;20057;-44
2021/04/15 10:21:26;;;;;;;6.30;2.60;;;;;;;4.40;78.43;100097.81;5051737;28;20049;-44
2021/04/15 10:24:02;;;;;;;6.25;3.00;;;;;;;4.42;77.30;100096.13;5036232;28;20424;-44
2021/04/15 10:26:34;;;;;;;5.63;3.10;;;;;;;4.44;77.94;100099.56;5052962;28;20048;-44
2021/04/15 10:29:18;;;;;;;7.53;2.97;;;;;;;4.45;77.59;100095.22;5053414;28;20427;-44
2021/04/15 10:31:55;;;;;;;6.10;3.92;;;;;;;4.39;77.86;100098.69;5053879;28;20045;-44
2021/04/15 10:34:48;;;;;;;5.82;2.95;;;;;;;4.38;77.55;100096.94;5053680;28;20052;-44
2021/04/15 10:37:38;;;;;;;4.13;2.40;;;;;;;4.49;77.35;100094.41;5053633;27;20354;-44
2021/04/15 10:40:31;;;;;;;5.07;3.08;;;;;;;4.36;77.16;100092.63;5037993;28;20079;-44
2021/04/15 10:43:19;;;;;;;6.45;3.40;;;;;;;4.42;78.24;100090.91;5053158;28;20041;-44
2021/04/15 10:46:05;;;;;;;5.47;3.10;;;;;;;4.41;77.70;100089.16;5053217;28;20450;-44
2021/04/15 10:48:37;;;;;;;7.50;5.07;;;;;;;4.48;76.90;100077.09;5052723;28;20064;-45
2021/04/15 10:51:07;;;;;;;12.57;8.70;;;;;;;4.54;77.14;100084.91;5052619;28;20037;-44
2021/04/15 10:53:44;;;;;;;52.35;32.42;;;;;;;4.54;77.66;100084.03;5052467;28;20067;-44
2021/04/15 10:56:09;;;;;;;16.60;11.88;;;;;;;4.61;77.27;100081.47;5052506;28;20057;-44
2021/04/15 10:58:36;;;;;;;6.80;5.50;;;;;;;4.61;76.77;100084.06;5053346;27;20450;-44
2021/04/15 11:01:32;;;;;;;10.40;5.40;;;;;;;4.60;77.32;100077.16;5053032;28;20044;-44
2021/04/15 11:04:18;;;;;;;6.18;3.72;;;;;;;4.57;78.12;100077.13;5052563;28;20041;-44
2021/04/15 11:07:03;;;;;;;6.90;4.32;;;;;;;4.62;78.63;100083.22;5052489;28;20045;-44
2021/04/15 11:09:39;;;;;;;10.55;5.53;;;;;;;4.62;77.86;100080.63;5052441;28;20053;-44
2021/04/15 11:12:14;;;;;;;6.72;4.30;;;;;;;4.45;77.54;100075.38;5052032;28;20102;-44
2021/04/15 11:14:43;;;;;;;4.68;3.75;;;;;;;4.50;77.90;100074.53;5052849;28;20041;-44
2021/04/15 11:17:31;;;;;;;6.80;3.85;;;;;;;4.73;76.69;100074.59;5052704;28;20094;-45
2021/04/15 11:20:30;;;;;;;6.15;3.50;;;;;;;4.65;77.57;100072.00;5052418;28;20045;-45
2021/04/15 11:22:57;;;;;;;4.85;3.25;;;;;;;4.68;76.88;100070.25;5056058;28;20041;-45
2021/04/15 11:25:25;;;;;;;5.45;3.53;;;;;;;4.78;77.20;100075.47;5052673;28;20048;-45
2021/04/15 11:27:52;;;;;;;5.28;3.38;;;;;;;4.78;77.24;100072.88;5052635;28;20049;-45
2021/04/15 11:30:39;;;;;;;5.53;3.35;;;;;;;4.86;77.21;100077.22;5051960;28;20049;-45
2021/04/15 11:33:05;;;;;;;4.03;2.83;;;;;;;4.88;77.64;100085.03;5052907;28;20045;-45
2021/04/15 11:35:31;;;;;;;6.03;3.72;;;;;;;4.87;77.68;100084.13;5052830;28;20049;-45
2021/04/15 11:38:21;;;;;;;5.13;3.38;;;;;;;4.91;76.83;100079.84;5052536;28;20044;-45
2021/04/15 11:40:50;;;;;;;3.85;3.25;;;;;;;4.89;76.73;100076.38;5052772;28;20075;-44
2021/04/15 11:43:22;;;;;;;6.55;4.32;;;;;;;4.79;77.25;100078.06;5051482;28;20069;-45
2021/04/15 11:45:48;;;;;;;15.48;9.18;;;;;;;4.86;77.65;100077.22;5051585;28;20064;-45
2021/04/15 11:48:18;;;;;;;21.55;12.13;;;;;;;4.85;76.81;100079.81;5051576;28;20045;-45
2021/04/15 11:50:46;;;;;;;59.00;35.72;;;;;;;4.88;77.87;100075.50;5053688;28;20049;-45
2021/04/15 11:54:01;;;;;;;23.33;13.50;;;;;;;4.95;77.02;100076.38;5055293;28;20049;-45
2021/04/15 11:56:35;;;;;;;11.88;8.35;;;;;;;4.95;77.27;100078.13;5064673;28;20086;-45
2021/04/15 11:59:21;;;;;;;7.53;5.40;;;;;;;5.01;76.75;100073.81;5056087;28;20048;-45
2021/04/15 12:01:47;;;;;;;9.85;6.22;;;;;;;5.13;76.95;100073.81;5055617;28;20056;-45
2021/04/15 12:04:24;;;;;;;8.35;6.38;;;;;;;5.01;77.59;100072.94;5055945;28;20113;-45
2021/04/15 12:06:56;;;;;;;7.45;5.70;;;;;;;5.18;76.69;100075.56;5055919;28;20056;-44
2021/04/15 12:09:24;;;;;;;14.30;7.25;;;;;;;5.16;76.58;100072.94;5054879;28;20061;-45
2021/04/15 12:11:59;;;;;;;5.50;4.00;;;;;;;5.24;76.71;100068.63;5054939;28;20109;-45
2021/04/15 12:14:24;;;;;;;6.95;4.22;;;;;;;5.18;77.33;100066.03;5055365;28;20489;-44
2021/04/15 12:17:17;;;;;;;4.38;2.95;;;;;;;5.06;76.81;100066.00;5054631;28;20037;-45